Time;durP1;ratioP1;P1;durP2;ratioP2;P2;SDS_P1;SDS_P2;PMS_P1;PMS_P2;Temp;Humidity;BMP_temperature;BMP_pressure;BME280_temperature;BME280_humidity;BME280_pressure;Samples;Min_cycle;Max_cycle;Signal;HPM_P1;HPM_P2
2022/01/08 00:01:11;;;;;;;9.65;5.82;;;;;;;2.82;61.02;100851.84;5060631;28;19912;-75
2022/01/08 00:03:56;;;;;;;14.60;6.22;;;;;;;2.79;61.56;100855.88;5059137;28;20055;-74
2022/01/08 00:06:41;;;;;;;7.82;4.22;;;;;;;2.63;61.91;100848.00;5051453;28;20048;-75
2022/01/08 00:09:25;;;;;;;7.87;4.90;;;;;;;2.76;63.88;100856.38;5052613;28;20052;-74
2022/01/08 00:12:10;;;;;;;11.17;5.03;;;;;;;2.89;63.61;100847.06;5057300;28;20297;-74
2022/01/08 00:14:55;;;;;;;10.85;5.15;;;;;;;2.86;60.64;100848.38;5059486;28;20063;-75
2022/01/08 00:17:40;;;;;;;11.93;4.70;;;;;;;2.94;64.14;100841.72;5055740;28;20547;-75
2022/01/08 00:20:24;;;;;;;11.65;6.03;;;;;;;2.79;62.21;100839.78;5073670;28;20408;-75
2022/01/08 00:23:10;;;;;;;7.68;4.60;;;;;;;2.62;62.20;100830.25;5072597;28;20035;-75
2022/01/08 00:25:55;;;;;;;9.25;5.65;;;;;;;2.53;64.90;100832.63;5080709;28;20511;-75
2022/01/08 00:28:40;;;;;;;8.40;4.68;;;;;;;2.61;62.95;100828.63;5060233;28;20047;-75
2022/01/08 00:31:25;;;;;;;8.23;4.23;;;;;;;2.65;64.88;100829.72;5055920;28;20047;-75
2022/01/08 00:34:09;;;;;;;7.65;4.47;;;;;;;2.45;63.95;100835.78;5080702;28;20293;-74
2022/01/08 00:36:54;;;;;;;7.67;4.90;;;;;;;2.00;63.72;100829.03;5049853;28;20051;-75
2022/01/08 00:39:39;;;;;;;10.37;5.57;;;;;;;2.08;63.97;100833.13;5065880;28;20309;-73
2022/01/08 00:42:24;;;;;;;13.40;6.55;;;;;;;2.39;63.68;100831.44;5059321;28;20847;-74
2022/01/08 00:45:09;;;;;;;10.30;4.40;;;;;;;2.04;64.23;100835.47;5045239;28;20059;-74
2022/01/08 00:47:54;;;;;;;10.35;6.22;;;;;;;1.99;64.89;100826.59;5046311;28;20432;-75
2022/01/08 00:50:39;;;;;;;11.30;6.13;;;;;;;2.12;65.02;100826.19;5064328;28;20048;-74
2022/01/08 00:53:24;;;;;;;16.58;6.88;;;;;;;2.27;64.82;100828.97;5079997;28;20051;-75
2022/01/08 00:56:10;;;;;;;17.40;7.80;;;;;;;2.31;64.60;100824.69;5050761;28;21893;-75
2022/01/08 00:58:54;;;;;;;;;;;;;;;2.51;65.29;100830.19;5063692;28;20052;-75
2022/01/08 01:01:39;;;;;;;16.92;8.38;;;;;;;2.51;64.82;100824.03;5057489;28;20007;-74
2022/01/08 01:04:23;;;;;;;13.90;6.93;;;;;;;2.25;63.58;100822.22;5053477;28;20051;-75
2022/01/08 01:07:08;;;;;;;15.77;7.25;;;;;;;2.29;63.85;100815.28;5070006;28;20063;-75
2022/01/08 01:09:53;;;;;;;15.20;7.47;;;;;;;2.09;64.33;100813.25;5047696;28;20043;-75
2022/01/08 01:12:38;;;;;;;19.75;7.72;;;;;;;2.23;63.92;100811.78;5067867;28;20059;-75
2022/01/08 01:15:23;;;;;;;;;;;;;;;2.24;64.25;100816.06;5074773;28;20051;-75
2022/01/08 01:18:09;;;;;;;17.15;8.70;;;;;;;2.05;63.92;100809.47;5078291;28;19912;-75
2022/01/08 01:20:54;;;;;;;19.30;8.95;;;;;;;1.92;64.97;100815.28;5057396;28;20044;-75
2022/01/08 01:23:42;;;;;;;10.80;5.93;;;;;;;2.11;65.68;100806.59;5080658;28;20047;-75
2022/01/08 01:26:29;;;;;;;17.20;7.70;;;;;;;2.01;64.99;100806.50;5053231;28;20068;-74
2022/01/08 01:47:34;;;;;;;20.95;7.88;;;;;;;1.93;65.82;100785.50;5047655;28;20055;-75
2022/01/08 01:50:19;;;;;;;13.68;7.50;;;;;;;1.83;65.96;100788.13;5053601;28;20060;-75
2022/01/08 01:53:04;;;;;;;13.20;6.20;;;;;;;1.99;64.81;100783.69;5044029;28;20055;-74
2022/01/08 01:55:49;;;;;;;11.75;6.03;;;;;;;1.99;64.00;100771.09;5074334;28;20047;-75
2022/01/08 01:58:34;;;;;;;18.35;6.18;;;;;;;1.96;64.03;100760.06;5044456;28;20061;-74
2022/01/08 02:01:19;;;;;;;11.82;5.53;;;;;;;1.66;64.66;100753.41;5055186;28;20044;-74
2022/01/08 02:04:04;;;;;;;10.40;5.80;;;;;;;1.84;65.17;100744.16;5057730;28;20063;-75
2022/01/08 02:06:49;;;;;;;12.18;5.68;;;;;;;2.01;64.41;100738.66;5054050;28;20055;-74
2022/01/08 02:09:37;;;;;;;12.38;6.30;;;;;;;2.12;63.72;100734.97;5053396;28;20242;-75
2022/01/08 02:12:22;;;;;;;14.90;7.53;;;;;;;2.08;63.64;100741.94;5064350;28;20047;-75
2022/01/08 02:15:07;;;;;;;12.32;7.13;;;;;;;2.19;64.00;100738.22;5062837;28;20408;-75
2022/01/08 02:17:52;;;;;;;;;;;;;;;1.98;63.39;100739.19;5065047;28;20044;-74
2022/01/08 02:20:37;;;;;;;10.52;6.93;;;;;;;1.47;65.42;100738.78;5050418;28;19928;-74
2022/01/08 02:23:22;;;;;;;45.83;18.95;;;;;;;1.38;65.29;100729.56;5053313;28;20058;-74
2022/01/08 02:26:09;;;;;;;29.58;14.52;;;;;;;1.47;65.87;100728.06;5043921;28;20048;-74
2022/01/08 02:28:54;;;;;;;17.10;8.23;;;;;;;1.39;65.63;100725.84;5051136;28;20048;-74
2022/01/08 02:31:40;;;;;;;13.57;7.05;;;;;;;0.78;68.13;100719.03;5049111;28;20060;-75
2022/01/08 02:34:27;;;;;;;15.05;7.30;;;;;;;0.78;67.83;100719.03;5047345;28;20051;-74
2022/01/08 02:37:13;;;;;;;15.63;6.72;;;;;;;1.06;67.08;100723.38;5052838;28;20043;-74
2022/01/08 02:39:58;;;;;;;13.30;6.20;;;;;;;1.01;66.63;100712.63;5062917;28;20413;-74
2022/01/08 02:42:53;;;;;;;14.02;4.70;;;;;;;0.66;67.57;100707.69;5054168;28;20043;-74
2022/01/08 02:45:38;;;;;;;9.05;5.55;;;;;;;0.51;68.41;100702.16;5054995;28;20048;-74
2022/01/08 02:48:23;;;;;;;8.95;4.07;;;;;;;0.43;69.23;100706.06;5054224;28;20052;-75
2022/01/08 02:51:07;;;;;;;8.75;4.47;;;;;;;0.62;69.19;100703.88;5064843;28;20051;-75
2022/01/08 02:53:52;;;;;;;9.73;6.28;;;;;;;0.45;70.01;100703.13;5050417;28;20124;-74
2022/01/08 02:56:41;;;;;;;7.40;4.57;;;;;;;0.66;69.22;100715.72;5056483;28;20524;-74
2022/01/08 02:59:27;;;;;;;10.52;5.22;;;;;;;0.97;68.93;100712.28;5050375;28;20416;-74
2022/01/08 03:02:12;;;;;;;13.25;5.75;;;;;;;1.14;68.66;100712.19;5052739;28;20035;-74
2022/01/08 03:04:57;;;;;;;17.13;6.95;;;;;;;1.16;67.34;100700.19;5049039;28;21897;-75
2022/01/08 03:07:44;;;;;;;15.52;4.55;;;;;;;1.19;67.77;100696.19;5041373;28;20411;-74
2022/01/08 03:10:28;;;;;;;9.32;5.47;;;;;;;1.22;67.49;100698.34;5054135;28;20047;-74
2022/01/08 03:13:13;;;;;;;9.98;4.90;;;;;;;1.26;67.22;100694.13;5065243;28;20047;-74
2022/01/08 03:15:58;;;;;;;8.95;5.05;;;;;;;1.21;69.12;100702.09;5071276;28;20047;-75
2022/01/08 03:18:43;;;;;;;11.43;5.40;;;;;;;1.28;68.72;100708.03;5076553;28;20059;-74
2022/01/08 03:21:35;;;;;;;11.63;4.72;;;;;;;1.23;69.48;100711.50;5057497;28;20702;-74
2022/01/08 03:24:27;;;;;;;14.73;7.22;;;;;;;1.31;70.96;100702.19;5069216;28;20055;-75
2022/01/08 03:27:12;;;;;;;15.07;8.50;;;;;;;1.40;68.58;100703.34;5062225;28;20448;-76
2022/01/08 03:29:57;;;;;;;10.70;5.07;;;;;;;1.37;67.26;100700.38;5058371;28;20091;-75
2022/01/08 03:32:41;;;;;;;7.82;4.85;;;;;;;1.34;69.83;100704.34;5057851;28;20298;-75
2022/01/08 03:35:27;;;;;;;12.38;5.55;;;;;;;1.11;69.41;100686.75;5057302;28;20063;-75
2022/01/08 03:38:11;;;;;;;7.53;4.25;;;;;;;0.92;69.51;100682.78;5055084;28;20067;-73
2022/01/08 03:40:56;;;;;;;9.97;4.83;;;;;;;0.99;70.59;100675.38;5061515;28;20059;-74
2022/01/08 03:43:41;;;;;;;9.02;5.75;;;;;;;0.99;69.82;100679.91;5057116;28;20663;-75
2022/01/08 03:46:29;;;;;;;8.55;5.03;;;;;;;0.71;72.33;100678.31;5066707;28;20512;-76
2022/01/08 03:49:24;;;;;;;14.35;6.00;;;;;;;0.76;69.54;100679.16;5062054;28;20052;-76
2022/01/08 03:52:08;;;;;;;10.85;5.40;;;;;;;0.71;68.58;100686.34;5060774;28;20039;-76
2022/01/08 03:54:53;;;;;;;12.40;5.47;;;;;;;0.72;69.68;100683.38;5051056;28;20056;-73
2022/01/08 03:57:38;;;;;;;8.60;4.68;;;;;;;0.81;68.82;100676.53;5051479;28;20063;-73
2022/01/08 04:00:23;;;;;;;8.35;4.65;;;;;;;0.58;68.06;100676.81;5075945;28;20044;-73
2022/01/08 04:03:08;;;;;;;9.57;5.03;;;;;;;0.56;68.41;100670.88;5078301;28;20047;-72
2022/01/08 04:05:53;;;;;;;10.05;5.20;;;;;;;0.54;68.25;100678.38;5078403;28;20055;-73
2022/01/08 04:08:38;;;;;;;11.73;5.28;;;;;;;0.72;69.25;100682.56;5052120;28;20052;-73
2022/01/08 04:11:26;;;;;;;10.57;4.97;;;;;;;0.85;69.40;100677.66;5056622;28;20043;-73
2022/01/08 04:14:12;;;;;;;17.02;7.10;;;;;;;0.79;68.30;100673.31;5051604;28;20052;-73
2022/01/08 04:16:57;;;;;;;9.80;6.10;;;;;;;0.80;68.18;100680.28;5046791;28;20049;-72
2022/01/08 04:19:43;;;;;;;12.50;5.63;;;;;;;0.85;68.40;100683.00;5054647;28;20519;-73
2022/01/08 04:22:28;;;;;;;15.93;5.72;;;;;;;1.16;70.83;100686.00;5046424;28;20039;-73
2022/01/08 04:25:13;;;;;;;;;;;;;;;0.84;67.94;100696.63;5049385;28;20071;-72
2022/01/08 04:27:57;;;;;;;11.80;6.50;;;;;;;0.70;67.99;100684.72;5062619;28;20365;-72
2022/01/08 04:30:43;;;;;;;7.45;4.65;;;;;;;0.33;68.62;100697.91;5050146;28;20040;-71
2022/01/08 04:33:27;;;;;;;8.55;5.25;;;;;;;0.50;68.86;100701.34;5064452;28;20051;-72
2022/01/08 04:36:12;;;;;;;7.47;4.30;;;;;;;0.67;69.41;100699.38;5059077;28;20060;-72
2022/01/08 04:38:56;;;;;;;10.02;5.55;;;;;;;0.63;68.42;100700.94;5074519;28;20067;-73
2022/01/08 04:41:43;;;;;;;6.65;4.28;;;;;;;0.57;67.59;100693.91;5044606;28;20063;-73
2022/01/08 04:44:27;;;;;;;12.23;6.05;;;;;;;0.36;68.23;100689.38;5074426;28;20409;-73
2022/01/08 04:47:12;;;;;;;;;;;;;;;0.17;69.32;100693.41;5054347;28;20067;-73
2022/01/08 04:49:57;;;;;;;21.15;7.75;;;;;;;0.25;69.44;100688.47;5055991;28;19912;-73
2022/01/08 04:52:41;;;;;;;8.70;4.70;;;;;;;0.39;69.06;100686.22;5063018;28;20056;-73
2022/01/08 04:55:26;;;;;;;11.85;5.43;;;;;;;0.41;68.73;100684.09;5052806;28;20306;-73
2022/01/08 04:58:11;;;;;;;9.07;4.78;;;;;;;0.38;68.43;100676.56;5044588;28;20059;-73
2022/01/08 05:00:57;;;;;;;7.45;4.85;;;;;;;0.39;69.21;100679.00;5052487;28;20044;-73
2022/01/08 05:03:42;;;;;;;8.60;4.72;;;;;;;0.39;68.01;100680.88;5062015;28;21799;-72
2022/01/08 05:06:27;;;;;;;;;;;;;;;0.41;69.14;100670.72;5057349;28;20044;-73
2022/01/08 05:09:12;;;;;;;11.77;5.70;;;;;;;0.50;69.30;100665.75;5051734;28;19912;-73
2022/01/08 05:11:57;;;;;;;7.75;4.75;;;;;;;0.43;68.27;100657.91;5066712;28;20063;-72
2022/01/08 05:14:44;;;;;;;9.47;4.87;;;;;;;0.36;70.22;100660.75;5048860;28;20087;-73
2022/01/08 05:17:34;;;;;;;12.90;6.32;;;;;;;0.40;72.37;100669.94;5046237;28;20132;-73
2022/01/08 05:20:19;;;;;;;9.80;5.28;;;;;;;0.32;71.97;100665.00;5068896;28;20421;-73
2022/01/08 05:23:04;;;;;;;10.75;6.47;;;;;;;0.50;70.50;100653.19;5077389;28;20046;-73
2022/01/08 05:25:49;;;;;;;17.70;5.97;;;;;;;0.36;68.96;100654.59;5061953;28;20047;-73
2022/01/08 05:28:33;;;;;;;10.60;5.23;;;;;;;0.28;69.68;100650.50;5063223;28;20448;-73
2022/01/08 05:31:21;;;;;;;12.00;5.20;;;;;;;0.33;69.52;100647.09;5076218;28;20059;-73
2022/01/08 05:34:06;;;;;;;12.38;6.95;;;;;;;0.51;70.18;100665.47;5069718;28;20710;-73
2022/01/08 05:36:50;;;;;;;9.68;5.65;;;;;;;0.32;68.88;100669.53;5063233;28;20040;-73
2022/01/08 05:39:35;;;;;;;10.52;4.68;;;;;;;-0.37;69.13;100663.78;5082331;28;20439;-72
2022/01/08 05:42:20;;;;;;;9.52;4.63;;;;;;;-0.22;70.44;100664.00;5068995;28;20043;-73
2022/01/08 05:45:06;;;;;;;9.73;5.40;;;;;;;-0.04;70.57;100653.03;5065960;28;20047;-72
2022/01/08 05:47:51;;;;;;;22.15;6.63;;;;;;;-0.14;69.03;100657.44;5050783;28;20526;-72
2022/01/08 05:50:35;;;;;;;9.15;4.95;;;;;;;-0.46;69.78;100649.22;5051252;28;20051;-72
2022/01/08 05:53:21;;;;;;;9.98;4.82;;;;;;;-0.46;70.39;100651.91;5047120;28;20048;-72
2022/01/08 05:56:06;;;;;;;11.93;5.68;;;;;;;-0.42;71.14;100655.69;5046656;28;20417;-73
2022/01/08 05:58:51;;;;;;;10.93;5.43;;;;;;;-0.40;71.15;100644.75;5044047;28;20052;-73
2022/01/08 06:01:35;;;;;;;7.97;4.53;;;;;;;-0.37;70.41;100633.59;5050117;28;20056;-73
2022/01/08 06:04:21;;;;;;;12.98;5.88;;;;;;;-0.28;70.64;100635.59;5057015;28;20405;-72
2022/01/08 06:07:06;;;;;;;20.33;6.43;;;;;;;-0.09;70.91;100634.25;5051683;28;20036;-73
2022/01/08 06:09:51;;;;;;;26.30;10.00;;;;;;;-0.15;69.99;100640.59;5046564;28;20037;-73
2022/01/08 06:12:36;;;;;;;13.43;6.57;;;;;;;-0.47;70.74;100631.59;5047182;28;20036;-72
2022/01/08 06:15:21;;;;;;;8.55;5.53;;;;;;;-0.52;69.50;100635.00;5060780;28;20037;-73
2022/01/08 06:18:06;;;;;;;12.52;5.63;;;;;;;-0.75;72.03;100658.34;5074980;28;20047;-73
2022/01/08 06:20:51;;;;;;;10.57;5.82;;;;;;;-0.97;72.48;100674.28;5077434;28;20051;-72
2022/01/08 06:23:36;;;;;;;17.60;5.20;;;;;;;-0.80;73.68;100691.13;5072951;28;20497;-73
2022/01/08 06:26:21;;;;;;;13.15;5.32;;;;;;;-0.74;72.70;100705.38;5076785;28;20032;-73
2022/01/08 06:29:06;;;;;;;15.77;6.50;;;;;;;-0.73;73.35;100709.66;5073027;28;20044;-73
2022/01/08 06:31:50;;;;;;;9.83;7.27;;;;;;;-0.79;73.20;100716.75;5086253;28;20032;-73
2022/01/08 06:34:35;;;;;;;8.35;4.82;;;;;;;-0.80;71.93;100711.66;5088052;28;20047;-72
2022/01/08 06:37:20;;;;;;;11.48;5.60;;;;;;;-1.03;71.94;100709.94;5061298;28;20044;-73
2022/01/08 06:40:06;;;;;;;11.43;5.10;;;;;;;-1.15;71.88;100704.63;5075762;28;20040;-73
2022/01/08 06:42:51;;;;;;;;;;;;;;;-0.99;71.92;100703.88;5066487;28;20047;-73
2022/01/08 06:45:35;;;;;;;10.55;5.20;;;;;;;-0.69;74.19;100702.78;5073036;28;19912;-73
2022/01/08 06:48:20;;;;;;;16.30;7.18;;;;;;;-0.57;71.76;100708.88;5068351;28;20036;-73
2022/01/08 06:51:05;;;;;;;12.63;6.50;;;;;;;-0.42;71.73;100709.13;5068375;28;20041;-73
2022/01/08 06:53:50;;;;;;;14.75;8.25;;;;;;;-0.38;71.29;100726.28;5078208;28;20045;-72
2022/01/08 06:56:34;;;;;;;16.75;9.13;;;;;;;-0.27;70.53;100728.06;5067532;28;20500;-72
2022/01/08 06:59:19;;;;;;;15.88;8.40;;;;;;;-0.27;70.25;100720.03;5083217;28;20037;-73
2022/01/08 07:02:04;;;;;;;11.07;7.72;;;;;;;-0.12;71.00;100724.81;5079126;28;20039;-73
2022/01/08 07:04:49;;;;;;;21.88;4.97;;;;;;;-0.27;70.03;100730.72;5061981;28;20051;-73
2022/01/08 07:07:34;;;;;;;15.45;4.90;;;;;;;-0.48;69.19;100731.44;5069656;28;20044;-73
2022/01/08 07:10:19;;;;;;;9.02;5.75;;;;;;;-0.70;70.13;100736.69;5081139;28;20039;-73
2022/01/08 07:13:03;;;;;;;11.48;5.38;;;;;;;-0.60;71.00;100730.69;5058474;28;20047;-73
2022/01/08 07:15:48;;;;;;;14.52;5.05;;;;;;;-0.36;71.85;100728.72;5074878;28;20040;-73
2022/01/08 07:18:32;;;;;;;10.50;5.30;;;;;;;-0.58;69.71;100728.59;5095277;28;20052;-73
2022/01/08 07:21:17;;;;;;;8.43;5.07;;;;;;;-0.49;70.50;100725.28;5065378;28;20047;-73
2022/01/08 07:24:02;;;;;;;15.50;4.72;;;;;;;-0.52;70.13;100720.44;5083509;28;20052;-73
2022/01/08 07:26:47;;;;;;;14.47;4.63;;;;;;;-0.64;70.61;100722.38;5090348;28;20036;-73
2022/01/08 07:29:31;;;;;;;8.80;5.25;;;;;;;-0.49;70.68;100714.59;5073447;28;20299;-73
2022/01/08 07:32:16;;;;;;;11.23;4.80;;;;;;;-0.66;70.75;100713.00;5071493;28;20039;-73
2022/01/08 07:35:01;;;;;;;14.68;6.65;;;;;;;-0.61;70.75;100715.75;5074002;28;20040;-73
2022/01/08 07:37:45;;;;;;;11.40;5.63;;;;;;;-0.59;71.15;100713.63;5076894;28;20036;-73
2022/01/08 07:40:31;;;;;;;13.40;6.20;;;;;;;-0.52;71.51;100711.63;5067504;28;20048;-73
2022/01/08 07:43:19;;;;;;;13.10;6.60;;;;;;;-0.62;71.73;100714.13;5074458;28;20040;-73
2022/01/08 07:46:04;;;;;;;15.52;7.10;;;;;;;-0.63;71.97;100717.84;5069959;28;20041;-73
2022/01/08 07:48:49;;;;;;;16.02;6.57;;;;;;;-0.36;71.64;100718.03;5074286;28;20036;-72
2022/01/08 07:51:34;;;;;;;9.97;5.13;;;;;;;-0.26;71.83;100713.66;5069726;28;20048;-73
2022/01/08 07:54:18;;;;;;;12.88;7.60;;;;;;;-0.28;72.25;100710.41;5077355;28;20289;-73
2022/01/08 07:57:03;;;;;;;11.18;6.00;;;;;;;-0.36;72.17;100718.03;5069452;28;20433;-74
2022/01/08 07:59:48;;;;;;;10.95;6.40;;;;;;;-0.24;72.82;100711.53;5069679;28;20044;-72
2022/01/08 08:02:32;;;;;;;14.87;8.40;;;;;;;0.05;72.26;100714.09;5074081;28;20413;-73
2022/01/08 08:05:17;;;;;;;16.73;7.78;;;;;;;0.14;72.33;100701.94;5070019;28;20060;-73
2022/01/08 08:08:02;;;;;;;13.77;6.70;;;;;;;0.25;72.04;100707.19;5067948;28;20044;-73
2022/01/08 08:10:50;;;;;;;11.25;6.10;;;;;;;0.47;71.63;100701.81;5073575;28;20036;-72
2022/01/08 08:13:35;;;;;;;13.95;7.30;;;;;;;0.37;71.43;100717.75;5063014;28;20056;-72
2022/01/08 08:16:20;;;;;;;12.80;7.97;;;;;;;0.55;71.83;100713.97;5073521;28;20044;-73
2022/01/08 08:19:04;;;;;;;11.67;7.20;;;;;;;0.73;70.82;100706.41;5070818;28;20056;-73
2022/01/08 08:21:49;;;;;;;14.95;7.30;;;;;;;0.80;70.46;100712.41;5071791;28;20305;-73
2022/01/08 08:24:34;;;;;;;9.35;5.25;;;;;;;0.85;71.44;100715.13;5060825;28;20421;-72
2022/01/08 08:27:18;;;;;;;10.77;5.15;;;;;;;0.99;71.66;100720.06;5070158;28;20051;-73
2022/01/08 08:30:04;;;;;;;10.15;5.63;;;;;;;1.15;71.52;100721.84;5064960;28;20524;-73
2022/01/08 08:32:49;;;;;;;10.30;5.70;;;;;;;1.39;69.91;100728.50;5068373;28;20051;-73
2022/01/08 08:35:34;;;;;;;;;;;;;;;1.51;69.67;100717.63;5064592;28;20052;-74
2022/01/08 08:38:19;;;;;;;10.15;6.28;;;;;;;1.58;68.91;100708.31;5073170;28;19916;-74
2022/01/08 08:41:04;;;;;;;10.70;5.43;;;;;;;1.54;68.79;100711.75;5070213;28;20052;-73
2022/01/08 08:43:49;;;;;;;10.82;6.00;;;;;;;1.66;68.60;100707.84;5067934;28;20044;-73
2022/01/08 08:46:34;;;;;;;11.95;6.20;;;;;;;1.62;68.59;100701.41;5068605;28;20119;-74
2022/01/08 08:49:19;;;;;;;18.20;7.07;;;;;;;1.81;67.69;100711.72;5066989;28;20043;-73
2022/01/08 08:52:07;;;;;;;9.48;5.55;;;;;;;1.76;68.13;100706.31;5069782;28;20051;-74
2022/01/08 08:54:52;;;;;;;12.50;7.70;;;;;;;1.85;67.81;100705.56;5067648;28;20051;-74
2022/01/08 08:57:37;;;;;;;8.73;5.32;;;;;;;1.85;67.38;100708.25;5068988;28;20043;-73
2022/01/08 09:00:22;;;;;;;9.85;6.72;;;;;;;2.07;67.27;100713.50;5076769;28;20040;-74
2022/01/08 09:03:08;;;;;;;13.48;6.53;;;;;;;2.39;66.43;100714.19;5075349;28;20047;-74
2022/01/08 09:05:52;;;;;;;;;;;;;;;2.44;64.57;100714.22;5074415;28;20052;-74
2022/01/08 09:08:37;;;;;;;16.42;7.95;;;;;;;2.46;63.42;100713.97;5077490;28;19912;-73
2022/01/08 09:11:22;;;;;;;14.87;7.77;;;;;;;2.57;61.47;100700.34;5076108;28;20051;-74
2022/01/08 09:14:07;;;;;;;73.75;37.63;;;;;;;2.24;61.76;100697.22;5072658;28;20511;-74
2022/01/08 09:16:57;;;;;;;18.25;10.73;;;;;;;2.22;62.08;100694.81;5072014;28;20048;-74
2022/01/08 09:19:43;;;;;;;19.02;8.82;;;;;;;2.35;60.02;100696.19;5070355;28;20040;-74
2022/01/08 09:22:28;;;;;;;16.70;10.05;;;;;;;2.50;60.90;100696.25;5071892;28;20059;-75
2022/01/08 09:25:12;;;;;;;14.40;6.77;;;;;;;2.44;61.05;100700.81;5068783;28;20508;-77
2022/01/08 09:27:57;;;;;;;10.18;5.90;;;;;;;2.28;59.06;100699.13;5069956;28;20527;-77
2022/01/08 09:30:42;;;;;;;9.38;5.35;;;;;;;2.47;55.96;100710.22;5067805;28;20047;-77
2022/01/08 09:33:27;;;;;;;10.07;6.18;;;;;;;2.52;57.60;100707.56;5058786;28;20042;-77
2022/01/08 09:36:13;;;;;;;9.55;5.88;;;;;;;2.57;54.95;100702.22;5074523;28;20051;-78
2022/01/08 09:38:57;;;;;;;;;;;;;;;2.77;56.70;100702.28;5073297;28;20095;-77
2022/01/08 09:41:42;;;;;;;14.55;7.20;;;;;;;2.72;56.67;100714.88;5053317;28;20313;-77
2022/01/08 09:44:27;;;;;;;11.10;6.20;;;;;;;2.86;56.70;100702.56;5063989;28;20413;-77
2022/01/08 09:47:12;;;;;;;11.27;6.10;;;;;;;2.88;57.61;100711.19;5072156;28;20043;-78
2022/01/08 09:49:57;;;;;;;16.20;8.05;;;;;;;2.81;58.11;100707.94;5070299;28;20044;-78
2022/01/08 09:52:42;;;;;;;12.25;6.07;;;;;;;2.91;57.68;100698.03;5059674;28;20048;-77
2022/01/08 09:55:28;;;;;;;10.63;6.00;;;;;;;3.07;56.87;100704.25;5066523;28;20044;-77
2022/01/08 09:58:13;;;;;;;12.90;7.55;;;;;;;2.92;57.02;100688.09;5068097;28;20054;-77
2022/01/08 10:00:59;;;;;;;15.20;5.97;;;;;;;2.90;56.66;100698.28;5067405;28;20048;-77
2022/01/08 10:03:44;;;;;;;13.45;7.57;;;;;;;2.88;57.19;100695.88;5075861;28;20051;-77
2022/01/08 10:06:34;;;;;;;13.20;5.95;;;;;;;3.03;57.57;100705.84;5088726;28;20412;-77
2022/01/08 10:09:19;;;;;;;13.95;7.78;;;;;;;3.05;55.68;100694.84;5077780;28;20087;-77
2022/01/08 10:12:04;;;;;;;10.82;6.80;;;;;;;3.07;56.29;100704.25;5067277;28;20060;-77
2022/01/08 10:17:55;;;;;;;10.55;5.40;;;;;;;3.34;56.41;100690.59;5023284;28;20056;-77
2022/01/08 10:20:40;;;;;;;12.68;6.47;;;;;;;3.53;57.12;100682.78;5072978;28;20056;-76
2022/01/08 10:23:31;;;;;;;13.95;8.77;;;;;;;3.61;57.65;100683.03;5066709;28;20043;-80
2022/01/08 10:26:19;;;;;;;12.45;7.43;;;;;;;3.83;57.90;100691.63;5074249;28;20408;-76
2022/01/08 10:29:07;;;;;;;12.20;8.40;;;;;;;3.98;57.63;100682.75;5071462;28;20051;-76
2022/01/08 10:31:53;;;;;;;21.15;9.77;;;;;;;4.13;58.56;100688.09;5056931;28;20052;-76
2022/01/08 10:34:47;;;;;;;14.70;8.90;;;;;;;4.17;59.65;100688.34;5057933;28;20052;-76
2022/01/08 10:37:51;;;;;;;17.88;10.65;;;;;;;4.13;58.43;100685.41;5071359;28;20274;-75
2022/01/08 10:40:35;;;;;;;21.20;11.18;;;;;;;4.18;60.36;100687.25;5070503;28;20059;-76
2022/01/08 10:43:27;;;;;;;15.53;9.37;;;;;;;4.43;59.06;100695.25;5073664;28;20048;-76
2022/01/08 10:46:17;;;;;;;21.38;11.75;;;;;;;4.88;59.18;100680.78;5071852;28;20047;-75
2022/01/08 10:49:03;;;;;;;21.88;11.73;;;;;;;4.76;59.23;100680.31;5075105;28;20036;-75
2022/01/08 10:51:49;;;;;;;26.92;12.05;;;;;;;4.75;59.25;100667.94;5071556;28;20048;-75
2022/01/08 10:54:37;;;;;;;22.52;10.95;;;;;;;4.92;57.07;100668.38;5070345;28;20059;-74
2022/01/08 10:57:31;;;;;;;21.02;10.98;;;;;;;4.90;57.92;100656.25;5074879;28;20107;-75
2022/01/08 11:00:16;;;;;;;23.85;9.60;;;;;;;4.82;58.74;100656.84;5076713;28;20048;-74
2022/01/08 11:03:01;;;;;;;18.17;8.77;;;;;;;4.91;57.58;100642.50;5074209;28;20436;-74
2022/01/08 11:06:01;;;;;;;13.38;9.50;;;;;;;5.10;58.30;100646.16;5078726;28;20047;-74
2022/01/08 11:09:00;;;;;;;16.85;9.65;;;;;;;5.09;57.68;100647.22;5071374;28;20051;-74
2022/01/08 11:11:45;;;;;;;20.95;10.32;;;;;;;4.97;58.02;100641.41;5079600;28;20047;-74
2022/01/08 11:17:36;;;;;;;20.58;10.52;;;;;;;5.08;58.53;100623.25;5071044;28;20047;-74
2022/01/08 11:20:26;;;;;;;18.77;10.88;;;;;;;5.30;57.93;100628.22;5074875;28;20036;-74
2022/01/08 11:23:13;;;;;;;16.92;10.02;;;;;;;5.14;57.90;100620.25;5075778;28;20043;-74
2022/01/08 11:25:58;;;;;;;20.27;10.88;;;;;;;5.33;57.32;100622.28;5070103;28;20040;-74
2022/01/08 11:28:47;;;;;;;29.92;12.50;;;;;;;5.36;57.45;100606.31;5075334;28;20048;-73
2022/01/08 11:31:34;;;;;;;22.55;11.93;;;;;;;5.45;57.69;100610.00;5076186;28;20036;-74
2022/01/08 11:34:21;;;;;;;17.20;10.38;;;;;;;5.45;56.96;100609.22;5066909;28;20041;-74
2022/01/08 11:37:08;;;;;;;18.50;10.55;;;;;;;5.64;57.56;100602.00;5070470;28;20055;-74
2022/01/08 11:39:53;;;;;;;11.15;8.00;;;;;;;5.75;56.29;100606.22;5065431;28;20051;-74
2022/01/08 11:42:38;;;;;;;;;;;;;;;5.91;56.89;100614.97;5070935;28;20842;-74
2022/01/08 11:45:30;;;;;;;14.43;6.40;;;;;;;6.05;56.07;100604.28;5065097;28;20451;-74
2022/01/08 11:48:18;;;;;;;10.25;6.10;;;;;;;5.85;52.89;100592.63;5070610;28;20061;-74
2022/01/08 11:51:06;;;;;;;11.20;6.05;;;;;;;6.04;52.79;100591.91;5071188;28;20039;-75
2022/01/08 11:53:57;;;;;;;14.77;5.45;;;;;;;6.08;52.35;100603.75;5075653;28;20052;-74
2022/01/08 11:56:42;;;;;;;8.82;5.32;;;;;;;6.01;51.78;100595.97;5069886;28;20429;-74
2022/01/08 11:59:29;;;;;;;9.10;5.38;;;;;;;6.09;51.63;100595.38;5070819;28;20047;-73
2022/01/08 12:02:15;;;;;;;9.82;5.93;;;;;;;6.11;51.67;100595.06;5073443;28;20055;-74
2022/01/08 12:05:01;;;;;;;9.65;5.40;;;;;;;6.25;50.93;100590.56;5071393;28;20055;-73
2022/01/08 12:07:47;;;;;;;25.98;6.40;;;;;;;6.24;51.41;100599.78;5075077;28;20048;-74
2022/01/08 12:10:32;;;;;;;13.75;6.00;;;;;;;6.20;51.26;100598.72;5077260;28;20051;-74
2022/01/08 12:13:47;;;;;;;7.22;4.30;;;;;;;6.26;52.17;100592.16;5074929;28;20496;-74
2022/01/08 12:16:32;;;;;;;12.20;6.15;;;;;;;6.36;51.78;100589.34;5078020;28;20048;-74
2022/01/08 12:19:33;;;;;;;7.97;4.85;;;;;;;6.49;51.60;100577.84;5073278;28;20043;-74
2022/01/08 12:22:18;;;;;;;9.95;6.40;;;;;;;6.64;51.27;100574.91;5068954;28;20040;-74
2022/01/08 12:25:03;;;;;;;7.57;5.00;;;;;;;6.80;51.19;100583.59;5076501;28;20047;-74
2022/01/08 12:27:48;;;;;;;9.35;5.57;;;;;;;6.60;51.11;100568.50;5078783;28;20417;-74
2022/01/08 12:30:35;;;;;;;10.33;4.67;;;;;;;6.77;52.10;100566.06;5081583;28;20051;-74
2022/01/08 12:33:20;;;;;;;14.23;7.13;;;;;;;6.81;54.44;100564.38;5059402;28;20044;-74
2022/01/08 12:36:31;;;;;;;7.82;4.85;;;;;;;6.85;52.24;100560.00;5075152;28;20056;-74
2022/01/08 12:39:16;;;;;;;8.93;6.25;;;;;;;6.88;51.57;100553.19;5068666;28;20039;-74
2022/01/08 12:42:19;;;;;;;11.35;6.28;;;;;;;7.14;52.79;100554.41;5075924;28;20057;-74
2022/01/08 12:45:15;;;;;;;12.20;7.57;;;;;;;7.10;52.29;100549.88;5072605;28;20535;-74
2022/01/08 12:48:00;;;;;;;12.77;8.20;;;;;;;7.20;52.90;100541.59;5073423;28;20044;-74
2022/01/08 12:50:45;;;;;;;9.10;6.05;;;;;;;7.14;53.74;100537.38;5059153;28;20405;-74
2022/01/08 12:53:30;;;;;;;8.30;5.47;;;;;;;7.16;53.46;100535.19;5065805;28;20048;-74
2022/01/08 12:56:16;;;;;;;10.85;7.40;;;;;;;7.39;53.16;100523.41;5075656;28;20301;-74
2022/01/08 12:59:03;;;;;;;9.82;6.97;;;;;;;7.31;53.35;100527.56;5078827;28;20039;-74
2022/01/08 13:01:49;;;;;;;16.08;7.20;;;;;;;7.35;53.94;100524.28;5061666;28;20063;-74
2022/01/08 13:04:35;;;;;;;17.63;7.35;;;;;;;7.54;54.02;100525.81;5079097;28;20063;-74
2022/01/08 13:07:21;;;;;;;11.73;7.05;;;;;;;7.67;53.50;100518.78;5079158;28;20529;-74
2022/01/08 13:10:06;;;;;;;13.27;7.95;;;;;;;9.24;48.75;100516.09;5072931;28;20047;-74
2022/01/08 13:13:05;;;;;;;9.13;6.03;;;;;;;14.74;36.05;100517.72;5091437;28;20602;-74
2022/01/08 13:15:50;;;;;;;30.67;13.77;;;;;;;16.73;32.17;100514.44;5063767;28;20516;-74
2022/01/08 13:18:35;;;;;;;14.52;8.55;;;;;;;17.46;30.11;100517.81;5075364;28;20044;-74